Terminal Aerodrome Forecast
Issued by NWS

Home | Current Version | Previous Version | Text Only | Print | Product List | Glossary On
Versions: 1 2 3 4 5 6 7 8 9 10 11 12 13
000
FTUS45 KREV 261100
TAFMMH
TAF
KMMH 261120Z 2612/2712 VRB04KT P6SM SKC
     FM262200 24010G18KT P6SM SCT100 BKN180
     FM270300 26005KT P6SM SCT100 BKN150
      AMD NOT SKED TIL 261400=

USA.gov is the U.S. government's official web portal to all federal, state and local government web resources and services.